Flight Track Log - Related Links

Times and Time Zones

All times are in EDT time to prevent confusion due to time zone crossing. See the EJA982 flight status page for this flight to view local times or setup timezone preferences in your user account.

Time Position Orientation Groundspeed Altitude Reporting Facility
EDT Latitude Longitude Course Direction KTS MPH feet Rate Location/Type
Mon 02:03:16 PM 37.4000 -121.9667 127° Southeast 193 222 2,800  Level Northern Cal TRACON
Mon 02:04:16 PM 37.4333 -121.9333 38° Northeast 219 252 5,000 1,158 Climbing Northern Cal TRACON
Mon 02:05:10 PM 37.4000 -121.8833 130° Southeast 231 266 5,000 1,377 Level Northern Cal TRACON
Mon 02:06:18 PM 37.3503 -121.8092 130° Southeast 238 274 7,800 2,492 Climbing Oakland Center
Mon 02:07:20 PM 37.2878 -121.7394 138° Southeast 299 344 10,400 2,049 Climbing Oakland Center
Mon 02:08:00 PM 37.2096 -121.7611 127° Southeast  Level Estimated
Mon 02:08:21 PM 37.2142 -121.6622 140° Southeast 347 399 12,000  Level Oakland Center
Mon 02:09:23 PM 37.1342 -121.5714 138° Southeast 382 440 14,600 2,585 Climbing Oakland Center
Mon 02:10:24 PM 37.0450 -121.4728 139° Southeast 399 459 17,300 2,390 Climbing Oakland Center
Mon 02:11:26 PM 36.9611 -121.3792 138° Southeast 405 466 19,500 1,902 Climbing Oakland Center
Mon 02:12:27 PM 36.8725 -121.2839 139° Southeast 419 482 21,200 1,854 Climbing Oakland Center
Mon 02:13:29 PM 36.7733 -121.1772 139° Southeast 434 499 23,300 1,951 Climbing Oakland Center
Mon 02:14:30 PM 36.6814 -121.0772 139° Southeast 439 505 25,200 1,869 Climbing Oakland Center
Mon 02:15:31 PM 36.5867 -120.9756 139° Southeast 448 516 27,100 1,610 Climbing Oakland Center
Mon 02:16:33 PM 36.4892 -120.8689 139° Southeast 463 533 28,500 927 Climbing Oakland Center
Mon 02:17:34 PM 36.3872 -120.7575 139° Southeast 484 557 29,000 244 Climbing Oakland Center
Mon 02:18:36 PM 36.2572 -120.6211 140° Southeast 509 586 29,000  Level Oakland Center
Mon 02:19:37 PM 36.1483 -120.5053 139° Southeast 514 592 29,000  Level Oakland Center
Mon 02:20:38 PM 36.0403 -120.3867 138° Southeast 521 600 29,000  Level Oakland Center
Mon 02:21:40 PM 35.9306 -120.2750 140° Southeast 508 585 29,000  Level Oakland Center
Mon 02:22:41 PM 35.8186 -120.1569 139° Southeast 523 602 29,000  Level Oakland Center
Mon 02:23:43 PM 35.7053 -120.0381 140° Southeast 528 608 29,000  Level Oakland Center
Mon 02:24:44 PM 35.5883 -119.9242 142° Southeast 528 608 29,000 -244 Level Oakland Center
Mon 02:25:46 PM 35.4667 -119.8214 145° Southeast 526 605 28,500 -976 Descending Oakland Center
Mon 02:26:47 PM 35.3494 -119.7208 145° Southeast 514 592 27,000 -1,403 Descending Oakland Center
Mon 02:27:03 PM 35.3269 -119.7022 146° Southeast 511 588 26,700 -1,615 Descending Los Angeles Center
Mon 02:28:05 PM 35.1892 -119.5839 145° Southeast 503 579 24,900 -1,355 Descending Los Angeles Center
Mon 02:29:07 PM 35.0747 -119.4875 145° Southeast 500 575 23,900 -1,645 Descending Los Angeles Center
Mon 02:30:09 PM 34.9622 -119.3919 145° Southeast 495 570 21,500 -2,274 Descending Los Angeles Center
Mon 02:31:11 PM 34.8597 -119.3042 145° Southeast 454 522 19,200 -2,177 Descending Los Angeles Center
Mon 02:32:13 PM 34.7653 -119.2222 145° Southeast 421 484 17,000 -2,081 Descending Los Angeles Center
Mon 02:33:15 PM 34.6739 -119.1467 146° Southeast 401 461 14,900 -1,984 Descending Los Angeles Center
Mon 02:34:17 PM 34.5819 -119.0711 146° Southeast 347 399 12,900 -1,776 Descending Los Angeles Center
Mon 02:35:20 PM 34.5064 -119.0111 147° Southeast 322 371 11,200 -912 Descending Los Angeles Center
Mon 02:36:22 PM 34.4400 -118.9494 143° Southeast 304 350 11,000 -823 Descending Los Angeles Center
Mon 02:37:24 PM 34.3847 -118.8550 125° Southeast 294 338 9,500 -1,452 Descending Los Angeles Center
Mon 02:38:26 PM 34.3478 -118.7719 118° Southeast 282 325 8,000 -1,210 Descending Los Angeles Center
Mon 02:39:28 PM 34.3119 -118.6897 118° Southeast 279 321 7,000 -484 Descending Los Angeles Center
Mon 02:40:30 PM 34.2739 -118.6050 119° Southeast 286 329 7,000  Level Los Angeles Center
Mon 02:41:32 PM 34.2406 -118.5303 118° Southeast 262 302 7,000 -164 Level Los Angeles Center
Mon 02:42:20 PM 34.2167 -118.4667 114° Southeast 241 277 6,700 -944 Descending Southern California TRACON
Mon 02:43:20 PM 34.2000 -118.3833 104° East 230 265 5,300 -1,342 Descending Southern California TRACON
Mon 02:43:36 PM 34.1858 -118.3667 136° Southeast 236 272 5,000 -304 Descending Los Angeles Center
Mon 02:44:39 PM 34.1606 -118.3042 116° Southeast 221 254 4,900 -912 Descending Los Angeles Center
Mon 02:45:41 PM 34.1106 -118.3275 201° Southwest 207 238 3,100 -1,161 Descending Los Angeles Center
Mon 02:46:43 PM 34.0797 -118.3683 228° Southwest 176 203 2,500 -871 Descending Los Angeles Center
Mon 02:47:45 PM 34.0533 -118.4042 228° Southwest 153 176 1,300 -968 Descending Los Angeles Center
Mon 02:48:47 PM 34.0281 -118.4378 228° Southwest 144 166 500 -774 Descending Los Angeles Center

Login

Don't have an account? Register now (free) for customized features, flight alerts, and more!